Brentwood, New York
Current Conditions -  °F | °C
As of 7:56 AM on Friday 31 Oct 2014 (Local Time) from KISP Reporting Station
Broken Clouds Broken Clouds  
Wind Chill:   Ceiling: 5000
Heat Index:   Visibility: 10mi
Dew Point:   Wind: 6mph
Humidity: 71%   Direction: 10°N
Pressure: 29.99"   Gusts: NA
Location:  40.78°N, 73.25°W
Report Text: KISP 311156Z 01005KT 10SM BKN050 08/03 A2999 RMK AO2 SLP156 T00830033 10083 20067 53002
Loading
Personal Weather Stations






























Interactive Weather Map
Tropical Storm Tracking
New forecast layout! Learn more

10-Day Weather Forecast

Advertisements
Track Severe Weather on mobile